Winnipeg, Manitoba

7:06 AM CDT on April 23, 2017 (GMT -0500)
Winnipeg | | Change Station

Elev 784 ft 49.90 °N, 97.23 °W | Updated 1 hour ago

Mostly Cloudy
Mostly Cloudy
25 °F
Feels Like 19 °F
N
5
Wind Variable Wind from ENE

Today
High -- | Low -- °F
--% Chance of Precip.
Yesterday
High -- | Low -- °F
Precip. -- in
Pressure 30.35 in
Visibility 15.0 miles
Clouds Scattered Clouds 14000 ft
Mostly Cloudy 20000 ft
Windchill 19 °F
Dew Point 18 °F
Humidity 74%
Rainfall 0.00 in
Snow Depth Not available.
6:19 AM 8:35 PM
Waning Crescent, 12% visible
METAR CYWG 231100Z 06004KT 15SM SCT140 BKN200 M04/M08 A3030 RMK AC3CI4 SLP275
Pressure 30.35 in
Visibility 15.0 miles
Clouds Scattered Clouds 14000 ft
Mostly Cloudy 20000 ft
Windchill 19 °F
Dew Point 18 °F
Humidity 74%
Rainfall 0.00 in
Snow Depth Not available.
6:19 AM 8:35 PM
Waning Crescent, 12% visible
METAR CYWG 231100Z 06004KT 15SM SCT140 BKN200 M04/M08 A3030 RMK AC3CI4 SLP275

Get Severe Weather Alerts

Thanks for signing up!

Be on the lookout for a verification email in your inbox.

You'll start receiving the daily forecast at 8 AM.

×

10-Day Weather Forecast

Almanac

Astronomy

Apr. 23, 2017 Rise Set
Actual Time
Civil Twilight
Nautical Twilight
Astronomical Twilight
Moon
Length of Visible Light
Length of Day
Tomorrow will be .
, % of the Moon is Illuminated

Today's Extremes

Country Highs Country Lows

Community

WunderPhotos

WunderBlog® & News

Nearby

Air Quality

  Air Quality AQ Index Pollutant
Not available.

Snow Depth

Station Depth Elevation

Earthquake Activity

City Distance Mag. Time & Date
Minimum magnitude displayed is 2.5.

Coastal Water Temperatures

Place Temperature

Stations

Nearby Weather Stations

Station Location Temp. Windchill Dew Point Humidity Wind Precip. Elev Updated Type
                   

Watches & Warnings

There are currently no watches in effect.